Time;durP1;ratioP1;P1;durP2;ratioP2;P2;SDS_P1;SDS_P2;PMS_P1;PMS_P2;Temp;Humidity;BMP_temperature;BMP_pressure;BME280_temperature;BME280_humidity;BME280_pressure;Samples;Min_cycle;Max_cycle;Signal;HPM_P1;HPM_P2
2021/01/14 00:02:20;;;;;;;1.13;1.00;;;;;;;-0.04;85.75;95226.88;5053379;28;20189;-76
2021/01/14 00:04:45;;;;;;;3.00;1.60;;;;;;;-0.10;86.19;95234.06;5070922;28;20185;-75
2021/01/14 00:07:11;;;;;;;1.77;1.40;;;;;;;-0.05;86.53;95245.66;5071157;28;20286;-76
2021/01/14 00:09:36;;;;;;;1.83;1.73;;;;;;;0.02;87.03;95252.97;5052815;28;20754;-76
2021/01/14 00:12:01;;;;;;;1.70;1.60;;;;;;;0.02;87.66;95251.25;5053260;28;20207;-75
2021/01/14 00:14:27;;;;;;;2.20;2.00;;;;;;;0.01;87.88;95253.88;5053479;28;20268;-76
2021/01/14 00:16:52;;;;;;;3.03;2.47;;;;;;;0.07;87.97;95261.16;5070741;28;20181;-75
2021/01/14 00:19:17;;;;;;;2.97;2.60;;;;;;;0.10;88.19;95255.91;5052854;28;20269;-76
2021/01/14 00:21:43;;;;;;;3.20;2.60;;;;;;;0.14;88.36;95255.59;5071413;28;20194;-75
2021/01/14 00:24:08;;;;;;;2.83;2.63;;;;;;;0.16;89.00;95246.13;5071264;28;20181;-75
2021/01/14 00:26:34;;;;;;;4.37;2.90;;;;;;;0.19;88.56;95245.94;5071261;28;20185;-76
2021/01/14 00:28:59;;;;;;;5.77;3.70;;;;;;;0.21;88.92;95230.53;5052391;28;20229;-76
2021/01/14 00:31:25;;;;;;;4.00;3.60;;;;;;;0.16;88.87;95237.63;5071071;28;20648;-75
2021/01/14 00:33:50;;;;;;;4.10;2.97;;;;;;;0.20;88.56;95232.25;5071025;28;20648;-76
2021/01/14 00:36:30;;;;;;;4.63;3.57;;;;;;;0.19;88.21;95229.81;5071028;28;20185;-76
2021/01/14 00:38:55;;;;;;;4.23;3.23;;;;;;;0.15;88.25;95221.50;5054659;28;20193;-75
2021/01/14 00:41:20;;;;;;;3.10;2.80;;;;;;;0.11;88.45;95224.34;5053576;28;20184;-76
2021/01/14 00:43:46;;;;;;;1.87;1.70;;;;;;;0.02;88.06;95218.06;5056971;28;20192;-75
2021/01/14 00:46:17;;;;;;;2.20;2.00;;;;;;;-0.01;87.56;95236.09;5056568;28;20270;-76
2021/01/14 00:48:42;;;;;;;2.20;2.00;;;;;;;-0.15;87.06;95259.88;5089981;28;20201;-75
2021/01/14 00:51:07;;;;;;;2.20;2.00;;;;;;;-0.15;86.80;95261.63;5074404;28;20195;-75
2021/01/14 00:53:33;;;;;;;2.50;1.80;;;;;;;-0.26;86.36;95281.84;5056725;28;20187;-76
2021/01/14 00:55:58;;;;;;;2.23;1.77;;;;;;;-0.31;86.45;95282.09;5056627;28;20180;-75
2021/01/14 00:58:23;;;;;;;2.37;1.70;;;;;;;-0.36;85.38;95268.78;5074450;28;20574;-75
2021/01/14 01:00:49;;;;;;;1.83;1.63;;;;;;;-0.37;85.90;95280.72;5073978;28;20196;-75
2021/01/14 01:03:14;;;;;;;1.90;1.70;;;;;;;-0.41;85.56;95274.16;5056396;28;20192;-75
2021/01/14 01:05:39;;;;;;;2.13;1.50;;;;;;;-0.44;85.41;95278.59;5074423;28;20237;-75
2021/01/14 01:08:05;;;;;;;2.37;1.83;;;;;;;-0.43;85.85;95275.16;5056311;28;20204;-75
2021/01/14 01:10:30;;;;;;;5.10;1.90;;;;;;;-0.44;85.65;95266.69;5055451;28;20219;-76
2021/01/14 01:12:57;;;;;;;2.17;1.90;;;;;;;-0.48;85.26;95277.97;5056232;28;20187;-76
2021/01/14 01:15:22;;;;;;;2.10;1.90;;;;;;;-0.50;85.57;95274.69;5056171;28;20188;-76
2021/01/14 01:17:48;;;;;;;2.90;2.13;;;;;;;-0.45;85.59;95289.72;5056293;28;20200;-76
2021/01/14 01:20:13;;;;;;;2.97;2.10;;;;;;;-0.47;86.05;95271.94;5056016;28;20230;-76
2021/01/14 01:22:39;;;;;;;2.33;2.03;;;;;;;-0.52;86.17;95276.50;5073816;28;20193;-76
2021/01/14 01:25:05;;;;;;;2.63;2.03;;;;;;;-0.51;85.95;95290.91;5056093;28;20266;-76
2021/01/14 01:27:30;;;;;;;2.63;2.07;;;;;;;-0.53;85.97;95272.31;5035866;28;20636;-76
2021/01/14 01:29:55;;;;;;;4.03;2.80;;;;;;;-0.52;86.00;95273.13;5064796;28;20605;-75
2021/01/14 01:32:21;;;;;;;4.37;3.37;;;;;;;-0.52;86.07;95280.78;5073905;28;20177;-76
2021/01/14 01:34:46;;;;;;;3.10;2.20;;;;;;;-0.52;86.21;95293.53;5038808;28;20294;-76
2021/01/14 01:37:11;;;;;;;2.87;2.10;;;;;;;-0.51;86.08;95290.91;5055625;28;20205;-75
2021/01/14 01:39:37;;;;;;;3.10;2.70;;;;;;;-0.51;86.30;95287.53;5073453;28;20203;-76
2021/01/14 01:42:04;;;;;;;5.00;3.10;;;;;;;-0.54;86.29;95278.31;5074124;28;20192;-75
2021/01/14 01:44:29;;;;;;;3.63;2.50;;;;;;;-0.58;86.30;95272.56;5039000;28;20181;-76
2021/01/14 01:46:56;;;;;;;4.70;3.53;;;;;;;-0.50;86.07;95281.50;5055400;28;20177;-76
2021/01/14 01:49:22;;;;;;;2.60;2.40;;;;;;;-0.57;86.46;95289.50;5071919;28;20261;-76
2021/01/14 01:51:48;;;;;;;3.00;2.50;;;;;;;-0.57;86.46;95289.50;5072294;28;20185;-76
2021/01/14 01:54:13;;;;;;;3.37;2.50;;;;;;;-0.51;86.07;95288.34;5052180;28;20255;-76
2021/01/14 01:56:39;;;;;;;2.93;2.40;;;;;;;-0.60;85.94;95283.78;5052188;28;20196;-76
2021/01/14 01:59:04;;;;;;;2.87;2.47;;;;;;;-0.58;86.22;95280.22;5054987;28;20223;-76
2021/01/14 02:01:29;;;;;;;3.87;2.83;;;;;;;-0.60;85.68;95274.38;5073371;28;20271;-76
2021/01/14 02:03:54;;;;;;;4.47;2.70;;;;;;;-0.58;86.04;95289.59;5073133;28;20565;-76
2021/01/14 02:06:20;;;;;;;3.00;2.57;;;;;;;-0.56;85.74;95297.97;5055339;28;20209;-76
2021/01/14 02:08:54;;;;;;;2.93;2.57;;;;;;;-0.59;85.84;95309.19;5072579;28;20209;-76
2021/01/14 02:11:33;;;;;;;3.37;2.33;;;;;;;-0.55;85.55;95307.28;5077005;28;20195;-76
2021/01/14 02:14:07;;;;;;;3.77;2.70;;;;;;;-0.62;85.66;95298.31;5071656;28;20271;-76
2021/01/14 02:16:37;;;;;;;3.87;2.40;;;;;;;-0.61;85.90;95294.88;5038277;28;20215;-76
2021/01/14 02:19:02;;;;;;;3.60;3.03;;;;;;;-0.61;85.74;95299.97;5038026;28;20200;-75
2021/01/14 02:21:29;;;;;;;3.60;2.37;;;;;;;-0.62;85.66;95303.41;5055106;28;20709;-76
2021/01/14 02:24:11;;;;;;;3.90;2.87;;;;;;;-0.62;85.86;95300.88;5054740;28;20595;-75
2021/01/14 02:26:38;;;;;;;2.90;2.50;;;;;;;-0.62;85.67;95311.06;5088862;28;20267;-76
2021/01/14 02:29:03;;;;;;;5.70;2.97;;;;;;;-0.60;85.79;95314.38;5087584;28;20288;-76
2021/01/14 02:31:28;;;;;;;3.30;2.37;;;;;;;-0.57;85.11;95325.22;5054845;28;20279;-76
2021/01/14 02:33:55;;;;;;;2.67;2.47;;;;;;;-0.58;84.95;95332.97;5054753;28;20279;-76
2021/01/14 02:36:25;;;;;;;3.93;2.60;;;;;;;-0.61;85.61;95339.06;5054520;28;20195;-76
2021/01/14 02:38:51;;;;;;;4.20;2.60;;;;;;;-0.59;85.62;95326.22;5054172;28;20250;-76
2021/01/14 02:41:16;;;;;;;3.50;2.60;;;;;;;-0.55;85.41;95309.81;5072390;28;20177;-76
2021/01/14 02:43:43;;;;;;;4.60;2.50;;;;;;;-0.58;nan;95312.56;5037919;28;20214;-76
2021/01/14 02:46:09;;;;;;;4.93;2.43;;;;;;;-0.59;85.22;95324.47;5038064;28;20176;-76
2021/01/14 02:48:37;;;;;;;3.23;2.30;;;;;;;-0.60;84.70;95330.50;5087828;28;20258;-76
2021/01/14 02:51:05;;;;;;;2.83;2.23;;;;;;;-0.58;85.04;95327.84;5053844;28;20625;-76
2021/01/14 02:53:31;;;;;;;2.80;2.13;;;;;;;-0.58;85.06;95323.56;5054148;28;20640;-76
2021/01/14 02:55:56;;;;;;;3.13;2.47;;;;;;;-0.58;85.08;95326.13;5054399;28;20185;-76
2021/01/14 02:58:22;;;;;;;3.80;2.43;;;;;;;-0.63;85.38;95320.44;5054206;28;20668;-76
2021/01/14 03:00:48;;;;;;;4.47;2.80;;;;;;;-0.66;85.49;95332.56;5053273;28;20212;-76
2021/01/14 03:03:13;;;;;;;4.97;2.60;;;;;;;-0.70;85.74;95320.91;5087542;28;20538;-75
2021/01/14 03:05:38;;;;;;;3.23;2.87;;;;;;;-0.71;85.50;95337.91;5071477;28;20200;-75
2021/01/14 03:08:04;;;;;;;5.77;2.83;;;;;;;-0.68;85.58;95334.38;5071924;28;20204;-76
2021/01/14 03:10:29;;;;;;;3.50;2.80;;;;;;;-0.68;85.66;95331.84;5053454;28;20212;-76
2021/01/14 03:12:55;;;;;;;3.83;2.77;;;;;;;-0.69;85.76;95332.75;5054035;28;20644;-76
2021/01/14 03:15:20;;;;;;;4.17;2.83;;;;;;;-0.68;85.72;95331.84;5071788;28;20255;-76
2021/01/14 03:17:46;;;;;;;6.30;2.80;;;;;;;-0.72;85.86;95345.63;5037169;28;20307;-76
2021/01/14 03:20:11;;;;;;;4.67;2.67;;;;;;;-0.73;85.66;95338.91;5052484;28;20177;-76
2021/01/14 03:22:40;;;;;;;3.90;2.93;;;;;;;-0.68;85.74;95347.13;5053615;28;20550;-76
2021/01/14 03:25:10;;;;;;;3.33;3.03;;;;;;;-0.71;85.89;95342.19;5036989;28;20187;-76
2021/01/14 03:27:40;;;;;;;3.07;2.67;;;;;;;-0.68;85.59;95347.13;5087312;28;20204;-76
2021/01/14 03:30:08;;;;;;;10.20;3.20;;;;;;;-0.66;85.29;95345.31;5053148;28;20243;-76
2021/01/14 03:32:33;;;;;;;3.63;2.77;;;;;;;-0.70;85.66;95338.75;5071369;28;20228;-76
2021/01/14 03:34:59;;;;;;;5.60;3.30;;;;;;;-0.66;85.59;95340.22;5053483;28;20565;-76
2021/01/14 03:37:24;;;;;;;3.57;2.80;;;;;;;-0.68;85.57;95342.03;5054268;28;20206;-76
2021/01/14 03:39:49;;;;;;;4.10;2.73;;;;;;;-0.68;84.91;95342.03;5036645;28;20173;-76
2021/01/14 03:42:18;;;;;;;4.97;3.30;;;;;;;-0.70;86.03;95356.59;5037245;28;20283;-75
2021/01/14 03:44:43;;;;;;;5.67;3.23;;;;;;;-0.72;86.04;95361.75;5036658;28;20180;-76
2021/01/14 03:47:09;;;;;;;4.87;2.73;;;;;;;-0.74;86.17;95370.41;5053390;28;20189;-76
2021/01/14 03:49:34;;;;;;;6.13;3.20;;;;;;;-0.74;86.18;95372.97;5053218;28;20211;-76
2021/01/14 03:51:59;;;;;;;5.13;3.33;;;;;;;-0.75;85.99;95371.31;5053265;28;20654;-76
2021/01/14 03:54:24;;;;;;;5.40;3.80;;;;;;;-0.80;86.23;95370.72;5071491;28;20180;-76
2021/01/14 03:56:50;;;;;;;7.13;3.50;;;;;;;-0.88;86.03;95359.25;5053345;28;20249;-76
2021/01/14 03:59:16;;;;;;;5.10;3.37;;;;;;;-0.86;86.59;95359.97;5053141;28;20664;-76
2021/01/14 04:01:41;;;;;;;5.33;3.13;;;;;;;-0.82;86.77;95359.81;5071202;28;20526;-76
2021/01/14 04:04:06;;;;;;;5.43;3.23;;;;;;;-0.78;86.74;95358.75;5036720;28;20188;-76
2021/01/14 04:06:33;;;;;;;7.37;4.13;;;;;;;-0.86;87.09;95359.97;5071343;28;20600;-76
2021/01/14 04:08:59;;;;;;;5.77;3.83;;;;;;;-0.80;86.80;95363.09;5052802;28;20244;-76
2021/01/14 04:11:24;;;;;;;7.17;4.10;;;;;;;-0.84;86.69;95365.00;5053175;28;20707;-76
2021/01/14 04:13:50;;;;;;;6.23;3.80;;;;;;;-0.84;86.56;95364.16;5053223;28;20603;-76
2021/01/14 04:16:15;;;;;;;6.53;3.70;;;;;;;-0.89;86.89;95360.13;5037106;28;20283;-76
2021/01/14 04:18:40;;;;;;;7.03;4.10;;;;;;;-0.86;87.10;95362.53;5057062;28;20244;-76
2021/01/14 04:21:05;;;;;;;5.07;4.10;;;;;;;-0.90;86.98;95367.84;5040122;28;20279;-76
2021/01/14 04:23:31;;;;;;;5.00;3.97;;;;;;;-0.88;87.27;95382.19;5057238;28;20705;-76
2021/01/14 04:25:56;;;;;;;8.40;4.60;;;;;;;-0.82;86.76;95387.84;5057279;28;20198;-76
2021/01/14 04:28:22;;;;;;;6.20;3.87;;;;;;;-0.87;87.00;95383.84;5057097;28;20261;-76
2021/01/14 04:30:47;;;;;;;7.37;4.73;;;;;;;-0.88;87.12;95376.28;5074570;28;20188;-76
2021/01/14 04:33:13;;;;;;;7.00;4.40;;;;;;;-0.88;87.27;95374.53;5056665;28;20194;-76
2021/01/14 04:35:48;;;;;;;6.87;4.30;;;;;;;-0.91;87.37;95377.22;5056618;28;20188;-76
2021/01/14 04:38:14;;;;;;;10.20;4.57;;;;;;;-0.92;87.65;95379.88;5056880;28;20207;-74
2021/01/14 04:40:40;;;;;;;9.33;4.90;;;;;;;-0.87;87.26;95383.00;5090156;28;20592;-74
2021/01/14 04:43:06;;;;;;;7.80;4.43;;;;;;;-0.91;87.40;95381.50;5040310;28;20261;-74
2021/01/14 04:45:34;;;;;;;10.20;4.77;;;;;;;-0.89;87.51;95375.41;5074375;28;20181;-74
2021/01/14 04:48:01;;;;;;;9.80;4.33;;;;;;;-0.93;87.64;95373.94;5058777;28;20642;-74
2021/01/14 04:50:27;;;;;;;9.80;4.73;;;;;;;-0.94;87.92;95376.59;5056201;28;20208;-74
2021/01/14 04:52:54;;;;;;;6.60;4.70;;;;;;;-0.89;87.73;95372.06;5056524;28;20219;-74
2021/01/14 04:55:21;;;;;;;8.10;5.53;;;;;;;-0.94;87.92;95372.31;5090533;28;20542;-76
2021/01/14 04:57:49;;;;;;;6.90;4.43;;;;;;;-0.93;87.72;95384.16;5073072;28;20346;-74
2021/01/14 05:00:16;;;;;;;7.03;4.53;;;;;;;-0.92;87.66;95383.25;5039697;28;20184;-74
2021/01/14 05:02:52;;;;;;;8.47;4.17;;;;;;;-0.95;87.57;95393.63;5056462;28;20274;-74
2021/01/14 05:05:21;;;;;;;8.93;5.27;;;;;;;-0.89;87.53;95388.16;5074471;28;20189;-74
2021/01/14 05:07:54;;;;;;;5.23;4.57;;;;;;;-0.93;87.84;95401.19;5055949;28;20203;-76
2021/01/14 05:10:22;;;;;;;6.93;4.60;;;;;;;-0.99;87.69;95399.75;5088296;28;20684;-76
2021/01/14 05:12:47;;;;;;;6.90;4.60;;;;;;;-0.96;87.79;95399.63;5054808;28;20186;-76
2021/01/14 05:15:15;;;;;;;7.93;4.73;;;;;;;-0.98;88.08;95406.50;5054939;28;20196;-75
2021/01/14 05:17:40;;;;;;;6.53;4.33;;;;;;;-1.00;88.18;95413.41;5054891;28;20228;-74
2021/01/14 05:20:06;;;;;;;9.83;5.17;;;;;;;-1.02;88.01;95406.75;5069692;28;20279;-76
2021/01/14 05:22:32;;;;;;;8.03;4.83;;;;;;;-1.02;88.14;95419.50;5073079;28;20186;-76
2021/01/14 05:25:06;;;;;;;9.00;5.50;;;;;;;-1.08;88.26;95422.38;5033487;28;20244;-77
2021/01/14 05:27:32;;;;;;;9.07;5.03;;;;;;;-1.02;88.02;95415.22;5054373;28;20295;-76
2021/01/14 05:30:02;;;;;;;7.63;4.33;;;;;;;-1.04;88.04;95409.41;5054078;28;20303;-76
2021/01/14 05:32:42;;;;;;;7.47;4.33;;;;;;;-1.10;88.47;95417.34;5058251;28;20188;-76
2021/01/14 05:35:09;;;;;;;9.07;5.40;;;;;;;-1.09;88.63;95419.00;5054111;28;20175;-76
2021/01/14 05:37:43;;;;;;;11.23;5.93;;;;;;;-1.03;88.37;95428.88;5054624;28;20205;-76
2021/01/14 05:40:09;;;;;;;10.13;5.57;;;;;;;-1.06;88.49;95428.19;5071066;28;20259;-76
2021/01/14 05:42:34;;;;;;;7.77;4.90;;;;;;;-1.10;88.33;95434.38;5054427;28;20196;-75
2021/01/14 05:45:00;;;;;;;11.83;5.53;;;;;;;-1.08;88.45;95438.47;5038311;28;20188;-76
2021/01/14 05:47:29;;;;;;;8.53;5.20;;;;;;;-1.11;88.73;95425.91;5050831;28;20208;-75
2021/01/14 05:49:54;;;;;;;8.03;4.33;;;;;;;-1.06;88.45;95443.50;5019122;28;20201;-76
2021/01/14 05:52:22;;;;;;;13.27;7.20;;;;;;;-1.11;88.88;95438.66;5071417;28;20566;-76
2021/01/14 05:54:57;;;;;;;7.13;5.27;;;;;;;-1.07;88.46;95447.75;5054511;28;20195;-76
2021/01/14 05:57:28;;;;;;;5.67;4.53;;;;;;;-1.04;88.33;95442.53;5054356;28;20619;-76
2021/01/14 05:59:56;;;;;;;7.53;5.00;;;;;;;-1.05;88.02;95450.25;5071948;28;20180;-76
2021/01/14 06:02:29;;;;;;;7.47;4.37;;;;;;;-1.02;88.13;95448.38;5070847;28;20192;-76
2021/01/14 06:04:55;;;;;;;6.53;3.77;;;;;;;-1.12;87.24;95454.03;5053901;28;20193;-76
2021/01/14 06:07:22;;;;;;;3.97;3.17;;;;;;;-1.17;87.31;95454.25;5054325;28;20212;-76
2021/01/14 06:09:48;;;;;;;5.03;3.10;;;;;;;-1.26;87.20;95452.16;5034004;28;548945;-76
2021/01/14 06:12:15;;;;;;;4.93;3.60;;;;;;;-1.23;87.44;95457.13;5073002;28;20190;-76
2021/01/14 06:14:40;;;;;;;5.07;3.43;;;;;;;-1.25;87.37;95459.72;5052221;28;20176;-76
2021/01/14 06:17:11;;;;;;;5.17;3.50;;;;;;;-1.21;87.01;95465.50;5037584;28;20188;-76
2021/01/14 06:19:36;;;;;;;6.50;3.83;;;;;;;-1.25;86.75;95464.81;5054144;28;20204;-76
2021/01/14 06:22:03;;;;;;;6.67;3.43;;;;;;;-1.25;87.04;95464.81;5054348;28;20219;-75
2021/01/14 06:24:38;;;;;;;4.57;3.63;;;;;;;-1.28;86.95;95470.09;5037547;28;20559;-76
2021/01/14 06:27:06;;;;;;;3.63;3.23;;;;;;;-1.26;86.94;95478.47;5053894;28;20560;-76
2021/01/14 06:29:36;;;;;;;5.40;2.77;;;;;;;-1.32;86.83;95478.81;5071782;28;20236;-76
2021/01/14 06:32:18;;;;;;;4.63;2.60;;;;;;;-1.33;86.44;95481.41;5071699;28;20246;-75
2021/01/14 06:34:47;;;;;;;4.60;2.90;;;;;;;-1.36;86.37;95484.13;5068190;28;20185;-75
2021/01/14 06:37:18;;;;;;;4.57;3.00;;;;;;;-1.34;86.57;95484.84;5062239;28;20208;-75
2021/01/14 06:39:48;;;;;;;3.63;2.80;;;;;;;-1.38;85.99;95485.94;5066273;28;20263;-75
2021/01/14 06:42:30;;;;;;;3.53;2.90;;;;;;;-1.38;86.12;95483.38;5049296;28;20188;-76
2021/01/14 06:44:57;;;;;;;3.87;2.97;;;;;;;-1.39;86.00;95485.09;5025408;28;20210;-77
2021/01/14 06:47:30;;;;;;;4.93;2.67;;;;;;;-1.34;85.75;95489.94;5054128;28;20239;-77
2021/01/14 06:50:14;;;;;;;7.90;2.87;;;;;;;-1.43;85.51;95496.31;5072040;28;20737;-76
2021/01/14 06:53:01;;;;;;;5.00;2.90;;;;;;;-1.43;85.56;95509.06;5072018;28;20550;-76
2021/01/14 06:55:33;;;;;;;4.30;2.67;;;;;;;-1.43;85.68;95514.16;5072322;28;20184;-76
2021/01/14 06:58:04;;;;;;;4.23;2.57;;;;;;;-1.45;85.19;95505.78;5038164;28;20693;-76
2021/01/14 07:00:30;;;;;;;3.93;2.80;;;;;;;-1.46;85.46;95504.13;5053736;28;20640;-77
2021/01/14 07:03:14;;;;;;;5.37;3.30;;;;;;;-1.46;85.35;95499.84;5053567;28;20185;-76
2021/01/14 07:05:52;;;;;;;6.50;3.63;;;;;;;-1.41;85.54;95497.09;5063570;28;20184;-76
2021/01/14 07:08:39;;;;;;;6.50;2.83;;;;;;;-1.44;85.50;95487.88;5071972;28;20212;-76
2021/01/14 07:11:09;;;;;;;7.57;3.23;;;;;;;-1.45;84.78;95490.50;5039265;28;20187;-76
2021/01/14 07:13:38;;;;;;;6.33;3.10;;;;;;;-1.44;85.00;95497.22;5069403;28;20189;-76
2021/01/14 07:16:04;;;;;;;5.67;3.37;;;;;;;-1.45;85.16;95486.22;5069270;28;20192;-76
2021/01/14 07:18:31;;;;;;;4.67;3.50;;;;;;;-1.51;85.12;95506.88;5062402;28;20215;-77
2021/01/14 07:21:02;;;;;;;4.83;4.20;;;;;;;-1.46;85.14;95501.59;5052762;28;20272;-75
2021/01/14 07:23:30;;;;;;;6.47;4.17;;;;;;;-1.43;85.11;95511.63;5071705;28;20724;-75
2021/01/14 07:25:56;;;;;;;7.33;4.00;;;;;;;-1.41;85.04;95507.28;5053410;28;20183;-76
2021/01/14 07:28:21;;;;;;;5.83;3.30;;;;;;;-1.39;84.75;95513.13;5052251;28;20216;-76
2021/01/14 07:30:46;;;;;;;8.03;3.17;;;;;;;-1.36;83.92;95530.78;5050934;28;20183;-76
2021/01/14 07:33:12;;;;;;;4.63;3.27;;;;;;;-1.39;84.06;95520.75;5071508;28;20187;-76
2021/01/14 07:35:42;;;;;;;10.87;4.90;;;;;;;-1.43;84.37;95521.81;5036999;28;20246;-77
2021/01/14 07:38:09;;;;;;;35.00;10.97;;;;;;;-1.46;83.92;95535.53;5051935;28;20257;-77
2021/01/14 07:40:35;;;;;;;37.40;13.40;;;;;;;-1.45;84.18;95538.88;5053071;28;20177;-76
2021/01/14 07:43:03;;;;;;;17.23;6.67;;;;;;;-1.47;83.88;95540.69;5053344;28;20263;-78
2021/01/14 07:45:29;;;;;;;14.97;8.67;;;;;;;-1.45;83.79;95544.81;5036424;28;20181;-75
2021/01/14 07:47:56;;;;;;;23.93;10.53;;;;;;;-1.48;83.99;95549.25;5053300;28;20210;-74
2021/01/14 07:50:28;;;;;;;19.27;10.27;;;;;;;-1.45;83.85;95549.91;5036473;28;20215;-75
2021/01/14 07:52:57;;;;;;;20.90;10.37;;;;;;;-1.45;83.29;95546.53;5053360;28;20651;-74
2021/01/14 07:55:34;;;;;;;31.73;14.57;;;;;;;-1.45;83.25;95539.72;5053297;28;20211;-74
2021/01/14 07:58:12;;;;;;;22.77;9.93;;;;;;;-1.50;82.47;95541.69;5037253;28;20631;-73
2021/01/14 08:00:38;;;;;;;7.40;2.53;;;;;;;-1.53;80.68;95541.81;5070891;28;20234;-74
2021/01/14 08:03:04;;;;;;;8.33;3.30;;;;;;;-1.61;79.96;95515.06;5071257;28;20188;-74
2021/01/14 08:05:56;;;;;;;17.07;8.23;;;;;;;-1.67;80.24;95518.75;5070819;28;20218;-75
2021/01/14 08:08:32;;;;;;;5.73;3.63;;;;;;;-1.68;79.33;95519.63;5052907;28;20589;-76
2021/01/14 08:11:23;;;;;;;7.13;3.93;;;;;;;-1.71;79.68;95514.69;5036299;28;20466;-76
2021/01/14 08:14:10;;;;;;;7.13;3.67;;;;;;;-1.73;79.85;95512.22;5036996;28;20545;-74
2021/01/14 08:16:46;;;;;;;5.00;2.47;;;;;;;-1.78;79.23;95519.25;5037562;28;20200;-76
2021/01/14 08:19:32;;;;;;;2.83;2.40;;;;;;;-1.71;78.44;95527.41;5053146;28;20200;-76
2021/01/14 08:21:58;;;;;;;5.67;2.50;;;;;;;-1.75;79.06;95531.84;5070834;28;20223;-76
2021/01/14 08:24:37;;;;;;;3.70;1.90;;;;;;;-1.69;79.35;95540.91;5070541;28;20216;-74
2021/01/14 08:27:04;;;;;;;5.13;2.10;;;;;;;-1.67;79.56;95548.47;5052740;28;20670;-76
2021/01/14 08:29:31;;;;;;;4.43;2.37;;;;;;;-1.62;78.97;95552.44;5036141;28;20212;-76
2021/01/14 08:31:57;;;;;;;3.07;2.47;;;;;;;-1.60;79.14;95563.38;5052859;28;20204;-74
2021/01/14 08:34:26;;;;;;;3.73;2.43;;;;;;;-1.61;79.30;95553.25;5036089;28;20215;-76
2021/01/14 08:36:56;;;;;;;4.07;2.10;;;;;;;-1.56;78.27;95564.06;5052932;28;20180;-73
2021/01/14 08:39:24;;;;;;;2.57;2.27;;;;;;;-1.53;78.22;95558.81;5036004;28;20271;-75
2021/01/14 08:41:51;;;;;;;3.77;2.47;;;;;;;-1.57;78.51;95565.78;5052978;28;20189;-74
2021/01/14 08:44:17;;;;;;;6.13;2.23;;;;;;;-1.55;78.75;95570.81;5052647;28;20266;-74
2021/01/14 08:46:47;;;;;;;3.87;2.53;;;;;;;-1.56;78.41;95567.44;5052885;28;20580;-76
2021/01/14 08:49:14;;;;;;;6.23;2.90;;;;;;;-1.52;78.47;95570.66;5035654;28;20207;-76
2021/01/14 08:51:41;;;;;;;3.77;2.97;;;;;;;-1.49;78.75;95567.97;5053022;28;20184;-77
2021/01/14 08:54:06;;;;;;;4.50;2.40;;;;;;;-1.49;78.49;95565.41;5070904;28;20188;-76
2021/01/14 08:56:32;;;;;;;2.63;2.00;;;;;;;-1.53;78.17;95561.34;5052634;28;20188;-76
2021/01/14 08:59:24;;;;;;;2.60;2.10;;;;;;;-1.55;77.21;95568.25;5035998;28;20283;-76
2021/01/14 09:01:56;;;;;;;4.07;2.50;;;;;;;-1.51;78.10;95569.75;5047752;28;20197;-74
2021/01/14 09:04:25;;;;;;;4.40;2.60;;;;;;;-1.45;77.93;95575.38;5055987;28;20282;-74
2021/01/14 09:06:50;;;;;;;3.40;2.47;;;;;;;-1.47;77.94;95572.06;5056178;28;20179;-74
2021/01/14 09:09:16;;;;;;;3.43;2.63;;;;;;;-1.38;78.08;95580.19;5055893;28;20234;-74
2021/01/14 09:11:42;;;;;;;2.93;2.43;;;;;;;-1.43;78.08;95581.22;5039376;28;20242;-74
2021/01/14 09:14:08;;;;;;;3.87;2.40;;;;;;;-1.42;77.70;95589.66;5042985;28;20192;-73
2021/01/14 09:16:35;;;;;;;4.43;2.53;;;;;;;-1.26;78.01;95594.84;5056115;28;20626;-76
2021/01/14 09:19:01;;;;;;;4.07;2.60;;;;;;;-1.28;77.08;95594.09;5039130;28;20291;-76
2021/01/14 09:21:27;;;;;;;5.80;2.80;;;;;;;-1.24;77.40;95595.59;5056039;28;20259;-74
2021/01/14 09:23:52;;;;;;;3.13;2.60;;;;;;;-1.13;77.53;95601.00;5056108;28;20199;-74
2021/01/14 09:26:20;;;;;;;3.37;2.40;;;;;;;-1.13;77.63;95600.19;5073841;28;20191;-75
2021/01/14 09:28:50;;;;;;;5.17;2.93;;;;;;;-1.11;77.32;95611.94;5038651;28;20574;-74
2021/01/14 09:31:16;;;;;;;4.00;2.70;;;;;;;-1.07;76.77;95621.06;5055960;28;20200;-74
2021/01/14 09:33:42;;;;;;;16.90;8.50;;;;;;;-1.07;76.58;95625.34;5048742;28;20626;-74
2021/01/14 09:36:22;;;;;;;29.70;11.07;;;;;;;-1.08;77.07;95632.16;5049270;28;20208;-74
2021/01/14 09:38:47;;;;;;;17.37;7.00;;;;;;;-1.04;77.09;95640.50;5084912;28;20223;-74
2021/01/14 09:41:24;;;;;;;27.97;11.60;;;;;;;-1.00;77.07;95642.81;5063904;28;20220;-74
2021/01/14 09:43:54;;;;;;;17.70;8.23;;;;;;;-0.98;77.06;95646.09;5056452;28;20208;-74
2021/01/14 09:46:25;;;;;;;4.90;3.93;;;;;;;-1.04;77.03;95654.06;5051841;28;20211;-74
2021/01/14 09:48:58;;;;;;;4.97;3.50;;;;;;;-1.08;76.46;95650.00;5086130;28;20618;-75
2021/01/14 09:51:24;;;;;;;4.97;2.00;;;;;;;-1.17;76.54;95665.75;5043908;28;20214;-73
2021/01/14 09:53:50;;;;;;;2.80;2.50;;;;;;;-1.25;76.77;95665.28;5065682;28;20208;-77
2021/01/14 09:56:30;;;;;;;5.03;2.40;;;;;;;-1.27;78.16;95672.19;5089235;28;20184;-74
2021/01/14 09:58:58;;;;;;;4.07;2.30;;;;;;;-1.46;78.74;95670.50;5064006;28;20250;-76
2021/01/14 10:01:34;;;;;;;4.63;2.67;;;;;;;-1.36;79.53;95680.28;5049164;28;20645;-75
2021/01/14 10:04:09;;;;;;;4.50;2.30;;;;;;;-1.20;78.72;95678.66;5049260;28;20189;-76
2021/01/14 10:06:39;;;;;;;4.27;2.60;;;;;;;-1.21;77.62;95682.09;5068647;28;20546;-76
2021/01/14 10:09:05;;;;;;;5.37;3.20;;;;;;;-1.06;78.08;95678.81;5040535;28;20274;-75
2021/01/14 10:11:31;;;;;;;4.93;4.37;;;;;;;-1.08;77.93;95672.94;5055255;28;20184;-75
2021/01/14 10:13:56;;;;;;;6.30;3.90;;;;;;;-1.09;77.07;95665.38;5036644;28;20200;-75
2021/01/14 10:16:22;;;;;;;6.33;4.47;;;;;;;-1.00;77.55;95654.75;5072622;28;20192;-75
2021/01/14 10:18:48;;;;;;;6.93;4.97;;;;;;;-0.98;77.64;95653.75;5053827;28;20730;-74
2021/01/14 10:21:14;;;;;;;5.07;4.27;;;;;;;-0.97;77.26;95646.94;5054710;28;20271;-76
2021/01/14 10:23:39;;;;;;;6.50;3.80;;;;;;;-1.05;77.38;95632.03;5038384;28;20220;-74
2021/01/14 10:26:04;;;;;;;6.47;3.90;;;;;;;-0.94;77.13;95642.53;5054376;28;20262;-74
2021/01/14 10:28:42;;;;;;;7.70;5.47;;;;;;;-0.87;77.13;95641.31;5053920;28;20688;-75
2021/01/14 10:31:07;;;;;;;23.13;8.57;;;;;;;-0.74;77.52;95648.34;5054893;28;20173;-74
2021/01/14 10:33:33;;;;;;;7.00;4.27;;;;;;;-0.83;76.69;95661.56;5054136;28;20191;-74
2021/01/14 10:35:58;;;;;;;6.30;3.60;;;;;;;-0.94;77.78;95672.28;5037608;28;20661;-74
2021/01/14 10:38:23;;;;;;;5.70;3.47;;;;;;;-1.17;79.67;95684.41;5068037;28;20635;-74
2021/01/14 10:40:51;;;;;;;5.50;3.27;;;;;;;-0.98;79.32;95689.44;5054302;28;20184;-74
2021/01/14 10:43:34;;;;;;;4.83;3.53;;;;;;;-1.02;79.46;95677.75;5054384;28;20252;-75
2021/01/14 10:46:00;;;;;;;5.90;3.83;;;;;;;-0.95;79.65;95674.03;5054127;28;20188;-74
2021/01/14 10:48:35;;;;;;;6.00;4.50;;;;;;;-0.87;79.71;95677.03;5048928;28;20680;-74
2021/01/14 10:51:00;;;;;;;5.33;4.20;;;;;;;-0.91;79.32;95685.69;5023939;28;20184;-74
2021/01/14 10:53:31;;;;;;;7.23;3.53;;;;;;;-1.00;79.73;95690.44;5054163;28;20635;-74
2021/01/14 10:56:03;;;;;;;6.50;3.87;;;;;;;-1.05;80.13;95698.31;5053622;28;20743;-74
2021/01/14 10:58:28;;;;;;;7.93;4.30;;;;;;;-0.91;79.78;95688.25;5071772;28;20283;-74
2021/01/14 11:00:54;;;;;;;7.57;5.13;;;;;;;-0.90;79.82;95694.19;5054082;28;20185;-73
2021/01/14 11:03:22;;;;;;;7.37;3.90;;;;;;;-0.92;80.25;95685.78;5054307;28;20723;-74
2021/01/14 11:05:51;;;;;;;7.60;4.57;;;;;;;-0.87;79.77;95682.13;5037320;28;20676;-75
2021/01/14 11:08:24;;;;;;;4.93;4.10;;;;;;;-0.79;79.79;95675.81;5071798;28;20212;-74
2021/01/14 11:11:10;;;;;;;7.13;4.13;;;;;;;-0.68;79.36;95664.19;5053428;28;20253;-74
2021/01/14 11:13:40;;;;;;;5.67;4.23;;;;;;;-0.65;79.07;95668.28;5053721;28;20180;-75
2021/01/14 11:16:07;;;;;;;5.73;4.50;;;;;;;-0.59;79.05;95668.00;5071886;28;20192;-75
2021/01/14 11:18:45;;;;;;;8.90;5.10;;;;;;;-0.72;78.12;95677.97;5037144;28;20551;-76
2021/01/14 11:21:12;;;;;;;7.87;5.10;;;;;;;-0.72;78.46;95677.16;5034194;28;20177;-74
2021/01/14 11:23:37;;;;;;;8.07;5.50;;;;;;;-0.70;78.70;95672.81;5036963;28;20184;-74
2021/01/14 11:26:04;;;;;;;8.50;4.90;;;;;;;-0.67;78.71;95670.94;5053508;28;20238;-74
2021/01/14 11:28:36;;;;;;;6.33;4.87;;;;;;;-0.75;78.53;95674.75;5036681;28;20286;-75
2021/01/14 11:31:02;;;;;;;10.00;4.60;;;;;;;-0.75;79.03;95662.00;5052954;28;20173;-75
2021/01/14 11:33:27;;;;;;;8.53;5.33;;;;;;;-0.78;79.29;95662.16;5036058;28;20262;-74
2021/01/14 11:35:52;;;;;;;5.90;4.50;;;;;;;-0.72;79.05;95659.28;5052669;28;20674;-74
2021/01/14 11:38:18;;;;;;;9.80;5.00;;;;;;;-0.67;79.32;95654.81;5070336;28;20204;-76
2021/01/14 11:40:47;;;;;;;9.60;4.83;;;;;;;-0.62;78.83;95652.81;5036582;28;20259;-74